Time;durP1;ratioP1;P1;durP2;ratioP2;P2;SDS_P1;SDS_P2;PMS_P1;PMS_P2;Temp;Humidity;BMP_temperature;BMP_pressure;BME280_temperature;BME280_humidity;BME280_pressure;Samples;Min_cycle;Max_cycle;Signal;HPM_P1;HPM_P2
2022/01/26 00:00:42;;;;;;;106.18;35.25;;;3.10;99.90;;;;;;5038301;28;20059;-74
2022/01/26 00:05:55;;;;;;;107.63;37.28;;;3.10;99.90;;;;;;5038394;28;20047;-74
2022/01/26 00:08:24;;;;;;;104.95;37.35;;;3.10;99.90;;;;;;5021962;28;20047;-75
2022/01/26 00:10:51;;;;;;;103.97;35.92;;;3.10;99.90;;;;;;5038389;28;20057;-73
2022/01/26 00:13:16;;;;;;;105.60;35.53;;;3.10;99.90;;;;;;5034838;28;20040;-74
2022/01/26 00:15:42;;;;;;;107.82;38.22;;;3.00;99.90;;;;;;5048827;28;20051;-74
2022/01/26 00:18:08;;;;;;;107.10;35.13;;;3.10;99.90;;;;;;5075669;28;20045;-75
2022/01/26 00:20:46;;;;;;;110.20;37.28;;;3.00;99.90;;;;;;5075809;28;20036;-75
2022/01/26 00:25:58;;;;;;;106.40;35.88;;;3.00;99.90;;;;;;5075003;28;20041;-75
2022/01/26 00:38:53;;;;;;;103.78;36.55;;;2.90;99.90;;;;;;5075553;28;20037;-74
2022/01/26 00:41:33;;;;;;;103.05;37.25;;;2.90;99.90;;;;;;5075752;28;20113;-74
2022/01/26 00:43:59;;;;;;;107.38;35.83;;;2.90;99.90;;;;;;5038657;28;20051;-75
2022/01/26 00:46:25;;;;;;;114.82;38.30;;;2.90;99.90;;;;;;5055034;28;20597;-74
2022/01/26 00:48:51;;;;;;;101.47;35.28;;;2.90;99.90;;;;;;5055466;28;20043;-74
2022/01/26 00:51:20;;;;;;;107.25;35.58;;;2.90;99.90;;;;;;5038971;28;20045;-75
2022/01/26 00:53:52;;;;;;;103.10;35.90;;;2.90;99.90;;;;;;5038695;28;20044;-74
2022/01/26 00:56:18;;;;;;;98.50;34.42;;;2.90;99.90;;;;;;5055063;28;20064;-74
2022/01/26 00:58:44;;;;;;;100.22;34.08;;;2.80;99.90;;;;;;5054877;28;20365;-75
2022/01/26 01:01:10;;;;;;;106.65;34.00;;;2.80;99.90;;;;;;5038073;28;20040;-74
2022/01/26 01:03:40;;;;;;;98.47;33.33;;;2.80;99.90;;;;;;5052667;28;20520;-74
2022/01/26 01:06:12;;;;;;;;;;;2.80;99.90;;;;;;5064499;28;20065;-75
2022/01/26 01:08:40;;;;;;;101.05;34.03;;;2.80;99.90;;;;;;5054832;28;19967;-74
2022/01/26 01:11:07;;;;;;;105.80;35.35;;;2.80;99.90;;;;;;5054788;28;20473;-75
2022/01/26 01:13:35;;;;;;;108.85;34.85;;;2.80;99.90;;;;;;5054401;28;20086;-75
2022/01/26 01:16:03;;;;;;;103.97;35.75;;;2.80;99.90;;;;;;5054925;28;20049;-75
2022/01/26 01:18:41;;;;;;;106.97;35.13;;;2.80;99.90;;;;;;5054833;28;20392;-75
2022/01/26 01:26:43;;;;;;;113.13;36.13;;;2.80;99.90;;;;;;5054210;28;20087;-74
2022/01/26 01:31:26;;;;;;;107.60;34.72;;;2.70;99.90;;;;;;5054680;28;20080;-74
2022/01/26 01:33:51;;;;;;;107.95;34.55;;;2.70;99.90;;;;;;5054537;28;20090;-74
2022/01/26 01:36:20;;;;;;;113.75;35.97;;;2.70;99.90;;;;;;5064597;28;20037;-75
2022/01/26 01:38:46;;;;;;;108.88;35.53;;;2.70;99.90;;;;;;5074000;28;20040;-75
2022/01/26 01:41:12;;;;;;;112.10;36.17;;;2.70;99.90;;;;;;5074987;28;20101;-75
2022/01/26 01:43:37;;;;;;;104.18;35.08;;;2.70;99.90;;;;;;5057479;28;20383;-75
2022/01/26 01:46:04;;;;;;;117.53;37.92;;;2.70;99.90;;;;;;5060363;28;20120;-75
2022/01/26 01:48:32;;;;;;;107.32;36.20;;;2.70;99.90;;;;;;5037469;28;20049;-75
2022/01/26 01:51:01;;;;;;;114.22;36.42;;;2.70;99.90;;;;;;5054090;28;20045;-74
2022/01/26 01:53:39;;;;;;;112.68;36.05;;;2.70;99.90;;;;;;5053810;28;20053;-75
2022/01/26 01:56:07;;;;;;;109.93;36.13;;;2.70;99.90;;;;;;5053979;28;20368;-75
2022/01/26 01:58:33;;;;;;;114.70;37.40;;;2.60;99.90;;;;;;5037631;28;20052;-75
2022/01/26 02:00:59;;;;;;;111.00;36.40;;;2.60;99.90;;;;;;5068289;28;20052;-74
2022/01/26 02:03:25;;;;;;;110.93;36.03;;;2.60;99.90;;;;;;5073942;28;20040;-74
2022/01/26 02:05:52;;;;;;;113.65;36.92;;;2.60;99.90;;;;;;5056555;28;20041;-74
2022/01/26 02:08:18;;;;;;;110.55;35.40;;;2.60;99.90;;;;;;5073301;28;20123;-74
2022/01/26 02:10:45;;;;;;;111.30;38.47;;;2.60;99.90;;;;;;5074173;28;20044;-74
2022/01/26 02:13:24;;;;;;;109.18;36.20;;;2.60;99.90;;;;;;5074004;28;20086;-75
2022/01/26 02:16:21;;;;;;;111.18;37.28;;;2.60;99.90;;;;;;5073556;28;20050;-74
2022/01/26 02:54:22;;;;;;;117.72;37.00;;;2.50;99.90;;;;;;5054629;28;20120;-74
2022/01/26 02:57:07;;;;;;;116.30;36.65;;;2.50;99.90;;;;;;5052357;28;20501;-75
2022/01/26 03:05:01;;;;;;;119.82;36.85;;;2.40;99.90;;;;;;5053119;28;20090;-75
2022/01/26 03:10:08;;;;;;;111.75;34.90;;;2.40;99.90;;;;;;5052771;28;20044;-74
2022/01/26 03:12:46;;;;;;;115.53;34.97;;;2.40;99.90;;;;;;5052346;28;20399;-75
2022/01/26 03:15:17;;;;;;;122.07;37.38;;;2.40;99.90;;;;;;5053757;28;20158;-75
2022/01/26 03:20:20;;;;;;;118.22;36.42;;;2.40;99.90;;;;;;5052083;28;20080;-74
2022/01/26 03:33:25;;;;;;;111.70;34.78;;;2.40;99.90;;;;;;5072298;28;20044;-74
2022/01/26 03:35:56;;;;;;;105.93;33.60;;;2.40;99.90;;;;;;5055717;28;20127;-74
2022/01/26 03:38:41;;;;;;;106.68;34.47;;;2.30;99.90;;;;;;5072866;28;20044;-74
2022/01/26 03:43:39;;;;;;;115.40;35.92;;;2.30;99.90;;;;;;5072100;28;20162;-74
2022/01/26 03:46:04;;;;;;;118.32;36.58;;;2.30;99.90;;;;;;5071776;28;20045;-74
2022/01/26 03:48:30;;;;;;;113.22;34.17;;;2.30;99.90;;;;;;5056071;28;20037;-75
2022/01/26 03:50:56;;;;;;;111.90;36.10;;;2.30;99.90;;;;;;5041092;28;20045;-74
2022/01/26 03:53:22;;;;;;;115.10;36.20;;;2.30;99.90;;;;;;5052380;28;20064;-75
2022/01/26 03:55:47;;;;;;;119.95;35.92;;;2.30;99.90;;;;;;5052332;28;20139;-74
2022/01/26 03:58:13;;;;;;;113.50;36.40;;;2.30;99.90;;;;;;5052184;28;20044;-73
2022/01/26 04:00:39;;;;;;;114.32;34.55;;;2.30;99.90;;;;;;5039681;28;20040;-74
2022/01/26 04:03:04;;;;;;;117.13;34.55;;;2.30;99.90;;;;;;5072070;28;20084;-73
2022/01/26 04:05:30;;;;;;;116.50;35.55;;;2.30;99.90;;;;;;5055672;28;20044;-74
2022/01/26 04:08:02;;;;;;;117.90;34.53;;;2.30;99.90;;;;;;5072142;28;20079;-74
2022/01/26 04:10:44;;;;;;;119.68;36.00;;;2.30;99.90;;;;;;5054925;28;20041;-74
2022/01/26 04:13:10;;;;;;;111.30;32.10;;;2.30;99.90;;;;;;5051303;28;20122;-74
2022/01/26 04:15:37;;;;;;;119.60;34.65;;;2.30;99.90;;;;;;5052223;28;20471;-74
2022/01/26 04:18:06;;;;;;;106.15;33.17;;;2.30;99.90;;;;;;5035421;28;20051;-75
2022/01/26 04:20:37;;;;;;;112.75;34.60;;;2.30;99.90;;;;;;5051847;28;20426;-74
2022/01/26 04:23:16;;;;;;;110.93;33.55;;;2.30;99.90;;;;;;5035254;28;20037;-74
2022/01/26 04:25:44;;;;;;;110.88;33.65;;;2.30;99.90;;;;;;5051203;28;20045;-74
2022/01/26 04:28:16;;;;;;;108.57;32.60;;;2.30;99.90;;;;;;5035493;28;20048;-74
2022/01/26 04:30:42;;;;;;;120.85;35.15;;;2.30;99.90;;;;;;5053938;28;20460;-74
2022/01/26 04:33:08;;;;;;;113.18;32.58;;;2.30;99.90;;;;;;5055851;28;20475;-74
2022/01/26 04:35:34;;;;;;;105.97;33.72;;;2.30;99.90;;;;;;5038948;28;20036;-74
2022/01/26 04:40:48;;;;;;;108.95;32.72;;;2.30;99.90;;;;;;5072547;28;20099;-74
2022/01/26 04:43:20;;;;;;;108.13;32.80;;;2.30;99.90;;;;;;5058563;28;20036;-74
2022/01/26 04:45:45;;;;;;;106.45;31.98;;;2.30;99.90;;;;;;5075015;28;20437;-74
2022/01/26 04:48:11;;;;;;;104.22;32.25;;;2.20;99.90;;;;;;5058640;28;20475;-75
2022/01/26 04:50:37;;;;;;;111.30;32.22;;;2.20;99.90;;;;;;5074291;28;20040;-75
2022/01/26 04:53:02;;;;;;;108.72;34.10;;;2.20;99.90;;;;;;5075904;28;20034;-74
2022/01/26 04:55:28;;;;;;;106.35;31.60;;;2.20;99.90;;;;;;5060826;28;20442;-74
2022/01/26 04:57:54;;;;;;;105.80;32.92;;;2.20;99.90;;;;;;5055101;28;20040;-74
2022/01/26 05:00:19;;;;;;;104.55;31.05;;;2.20;99.90;;;;;;5055027;28;20050;-74
2022/01/26 05:02:45;;;;;;;117.97;33.67;;;2.10;99.90;;;;;;5054805;28;20049;-75
2022/01/26 05:05:12;;;;;;;101.95;30.55;;;2.10;99.90;;;;;;5054662;28;20132;-75
2022/01/26 05:07:38;;;;;;;103.68;31.45;;;2.20;99.90;;;;;;5055575;28;20086;-74
2022/01/26 05:10:05;;;;;;;95.65;29.10;;;2.20;99.90;;;;;;5039453;28;20124;-74
2022/01/26 05:12:31;;;;;;;105.22;30.10;;;2.10;99.90;;;;;;5054961;28;20144;-73
2022/01/26 05:14:57;;;;;;;99.22;29.45;;;2.10;99.90;;;;;;5054700;28;20040;-74
2022/01/26 05:17:24;;;;;;;98.88;29.30;;;2.10;99.90;;;;;;5054617;28;20090;-74
2022/01/26 05:19:54;;;;;;;91.05;28.77;;;2.10;99.90;;;;;;5054382;28;20045;-74
2022/01/26 05:22:20;;;;;;;95.47;29.13;;;2.10;99.90;;;;;;5054725;28;20040;-74
2022/01/26 05:24:47;;;;;;;98.72;28.40;;;2.10;99.90;;;;;;5038472;28;20044;-74
2022/01/26 05:27:13;;;;;;;88.53;26.88;;;2.10;99.90;;;;;;5038332;28;20040;-73
2022/01/26 05:29:39;;;;;;;97.95;30.00;;;2.10;99.90;;;;;;5054753;28;20404;-74
2022/01/26 05:32:05;;;;;;;96.20;30.25;;;2.20;99.90;;;;;;5054449;28;20360;-74
2022/01/26 05:34:30;;;;;;;90.72;28.33;;;2.20;99.90;;;;;;5054166;28;20482;-74
2022/01/26 05:36:56;;;;;;;94.07;29.52;;;2.20;99.90;;;;;;5038500;28;20386;-75
2022/01/26 05:39:21;;;;;;;83.72;26.42;;;2.20;99.90;;;;;;5062742;28;20173;-75
2022/01/26 05:41:47;;;;;;;92.50;29.17;;;2.20;99.90;;;;;;5056418;28;20040;-74
2022/01/26 05:44:13;;;;;;;90.90;26.73;;;2.20;99.90;;;;;;5057287;28;20048;-74
2022/01/26 05:46:43;;;;;;;89.70;27.35;;;2.20;99.90;;;;;;5074126;28;20040;-75
2022/01/26 05:49:10;;;;;;;95.03;28.10;;;2.20;99.90;;;;;;5063890;28;20052;-75
2022/01/26 05:51:36;;;;;;;93.25;26.98;;;2.20;99.90;;;;;;5037658;28;20043;-74
2022/01/26 05:54:03;;;;;;;84.03;26.77;;;2.20;99.90;;;;;;5037700;28;20040;-75
2022/01/26 05:56:29;;;;;;;88.25;27.25;;;2.20;99.90;;;;;;5054167;28;20051;-75
2022/01/26 05:58:55;;;;;;;91.45;26.65;;;2.20;99.90;;;;;;5054014;28;20049;-75
2022/01/26 06:01:21;;;;;;;93.82;29.45;;;2.20;99.90;;;;;;5053595;28;20052;-75
2022/01/26 06:03:47;;;;;;;90.38;27.75;;;2.20;99.90;;;;;;5053211;28;20127;-75
2022/01/26 06:06:15;;;;;;;84.45;26.10;;;2.20;99.90;;;;;;5054223;28;20178;-74
2022/01/26 06:08:41;;;;;;;95.43;28.38;;;2.20;99.90;;;;;;5056486;28;20068;-75
2022/01/26 06:11:06;;;;;;;89.43;27.17;;;2.20;99.90;;;;;;5073816;28;20044;-74
2022/01/26 06:13:32;;;;;;;82.20;26.60;;;2.20;99.90;;;;;;5073578;28;20037;-74
2022/01/26 06:15:58;;;;;;;86.78;25.92;;;2.20;99.90;;;;;;5056954;28;20426;-75
2022/01/26 06:18:23;;;;;;;81.20;26.38;;;2.20;99.90;;;;;;5056641;28;20041;-75
2022/01/26 06:20:49;;;;;;;86.57;25.73;;;2.20;99.90;;;;;;5073607;28;20098;-74
2022/01/26 06:23:15;;;;;;;90.15;26.45;;;2.20;99.90;;;;;;5056895;28;20478;-74
2022/01/26 06:25:41;;;;;;;89.57;26.17;;;2.20;99.90;;;;;;5073146;28;20390;-74
2022/01/26 06:28:11;;;;;;;84.15;26.13;;;2.20;99.90;;;;;;5073526;28;20467;-74
2022/01/26 06:30:38;;;;;;;84.05;24.85;;;2.20;99.90;;;;;;5037624;28;20539;-75
2022/01/26 06:33:05;;;;;;;84.60;25.23;;;2.20;99.90;;;;;;5053018;28;20041;-75
2022/01/26 06:35:33;;;;;;;87.10;25.85;;;2.10;99.90;;;;;;5036784;28;20094;-75
2022/01/26 06:37:59;;;;;;;82.72;25.17;;;2.20;99.90;;;;;;5053288;28;20041;-75
2022/01/26 06:40:25;;;;;;;78.90;24.48;;;2.20;99.90;;;;;;5053169;28;20039;-75
2022/01/26 06:42:58;;;;;;;76.13;25.05;;;2.20;99.90;;;;;;5053081;28;20045;-76
2022/01/26 06:45:29;;;;;;;78.75;25.30;;;2.20;99.90;;;;;;5035955;28;20045;-76
2022/01/26 06:50:39;;;;;;;77.57;24.40;;;2.20;99.90;;;;;;5052996;28;20053;-75
2022/01/26 06:53:05;;;;;;;72.78;23.98;;;2.20;99.90;;;;;;5036337;28;20376;-74
2022/01/26 06:55:32;;;;;;;75.65;23.80;;;2.20;99.90;;;;;;5052882;28;20495;-74
2022/01/26 06:57:58;;;;;;;74.47;24.25;;;2.20;99.90;;;;;;5052565;28;20067;-76
2022/01/26 07:00:24;;;;;;;74.97;23.63;;;2.20;99.90;;;;;;5069095;28;20037;-77
2022/01/26 07:02:49;;;;;;;67.60;22.45;;;2.20;99.90;;;;;;5072981;28;20483;-76
2022/01/26 07:05:15;;;;;;;74.10;22.63;;;2.20;99.90;;;;;;5056319;28;20033;-74
2022/01/26 07:07:41;;;;;;;71.45;23.85;;;2.20;99.90;;;;;;5072919;28;20048;-74
2022/01/26 07:10:10;;;;;;;72.47;22.17;;;2.20;99.90;;;;;;5072682;28;20390;-77
2022/01/26 07:12:36;;;;;;;72.15;22.48;;;2.20;99.90;;;;;;5072583;28;20467;-74
2022/01/26 07:23:09;;;;;;;74.88;23.20;;;2.20;99.90;;;;;;5072624;28;20058;-74
2022/01/26 07:25:36;;;;;;;70.50;22.83;;;2.20;99.90;;;;;;5072938;28;20039;-74
2022/01/26 07:28:04;;;;;;;69.90;22.48;;;2.20;99.90;;;;;;5058385;28;20395;-74
2022/01/26 07:30:31;;;;;;;71.22;23.60;;;2.30;99.90;;;;;;5035732;28;20098;-74
2022/01/26 07:32:56;;;;;;;76.93;23.55;;;2.20;99.90;;;;;;5052359;28;20502;-73
2022/01/26 07:35:22;;;;;;;76.75;23.42;;;2.20;99.90;;;;;;5035538;28;20076;-74
2022/01/26 07:37:50;;;;;;;85.32;24.58;;;2.30;99.90;;;;;;5053078;28;20047;-75
2022/01/26 07:40:16;;;;;;;73.50;23.52;;;2.30;99.90;;;;;;5035774;28;20056;-75
2022/01/26 07:42:41;;;;;;;77.75;24.90;;;2.30;99.90;;;;;;5052187;28;20067;-74
2022/01/26 07:45:09;;;;;;;80.22;24.38;;;2.30;99.90;;;;;;5052157;28;20037;-74
2022/01/26 07:47:37;;;;;;;74.53;24.75;;;2.30;99.90;;;;;;5052070;28;20037;-74
2022/01/26 07:50:08;;;;;;;88.20;26.08;;;2.30;99.90;;;;;;5062021;28;20055;-75
2022/01/26 07:52:38;;;;;;;84.13;26.85;;;2.30;99.90;;;;;;5069608;28;20044;-74
2022/01/26 07:55:05;;;;;;;86.63;29.23;;;2.30;99.90;;;;;;5072164;28;20479;-75
2022/01/26 07:57:31;;;;;;;75.75;25.60;;;2.30;99.90;;;;;;5072003;28;20079;-75
2022/01/26 07:59:57;;;;;;;82.50;27.60;;;2.30;99.90;;;;;;5072006;28;20082;-75
2022/01/26 08:02:23;;;;;;;94.97;31.17;;;2.30;99.90;;;;;;5071764;28;20087;-75
2022/01/26 08:04:49;;;;;;;92.88;29.77;;;2.40;99.90;;;;;;5046842;28;20045;-74
2022/01/26 08:07:14;;;;;;;94.28;32.55;;;2.40;99.90;;;;;;5039529;28;20037;-74
2022/01/26 08:09:46;;;;;;;97.82;33.42;;;2.40;99.90;;;;;;5039859;28;20045;-75
2022/01/26 08:12:15;;;;;;;102.35;33.97;;;2.40;99.90;;;;;;5055711;28;20395;-74
2022/01/26 08:14:41;;;;;;;105.95;34.92;;;2.40;99.90;;;;;;5039233;28;20040;-74
2022/01/26 08:17:08;;;;;;;108.00;37.08;;;2.40;99.90;;;;;;5055677;28;20067;-74
2022/01/26 08:19:35;;;;;;;102.70;36.30;;;2.50;99.90;;;;;;5065191;28;20146;-74
2022/01/26 08:22:01;;;;;;;112.10;36.35;;;2.50;99.90;;;;;;5058574;28;20051;-74
2022/01/26 08:24:31;;;;;;;112.75;36.95;;;2.50;99.90;;;;;;5055755;28;20083;-73
2022/01/26 08:27:01;;;;;;;108.03;36.97;;;2.50;99.90;;;;;;5055564;28;20131;-74
2022/01/26 08:29:38;;;;;;;111.55;36.63;;;2.50;99.90;;;;;;5039076;28;20048;-73
2022/01/26 08:32:07;;;;;;;120.07;40.08;;;2.50;99.90;;;;;;5056344;28;20041;-73
2022/01/26 08:34:33;;;;;;;117.88;39.35;;;2.50;99.90;;;;;;5039904;28;20048;-73
2022/01/26 08:36:59;;;;;;;109.68;39.33;;;2.50;99.90;;;;;;5055660;28;20045;-73
2022/01/26 08:39:24;;;;;;;113.35;38.33;;;2.50;99.90;;;;;;5055318;28;20040;-73
2022/01/26 08:41:52;;;;;;;122.90;42.50;;;2.50;99.90;;;;;;5055272;28;20134;-74
2022/01/26 08:44:17;;;;;;;122.97;41.63;;;2.60;99.90;;;;;;5054981;28;20095;-75
2022/01/26 08:46:43;;;;;;;129.88;43.38;;;2.60;99.90;;;;;;5045825;28;20048;-73
2022/01/26 08:49:10;;;;;;;118.82;41.45;;;2.60;99.90;;;;;;5056810;28;20037;-73
2022/01/26 08:51:36;;;;;;;123.18;42.95;;;2.60;99.90;;;;;;5058422;28;20048;-72
2022/01/26 08:54:03;;;;;;;135.57;45.33;;;2.60;99.90;;;;;;5074928;28;20040;-73
2022/01/26 08:56:28;;;;;;;123.47;43.08;;;2.60;99.90;;;;;;5074782;28;20387;-74
2022/01/26 08:58:54;;;;;;;129.43;43.97;;;2.70;99.90;;;;;;5074799;28;20479;-73
2022/01/26 09:01:20;;;;;;;132.43;46.10;;;2.60;99.90;;;;;;5075771;28;20037;-73
2022/01/26 09:03:46;;;;;;;132.60;45.75;;;2.70;99.90;;;;;;5056084;28;20407;-73
2022/01/26 09:06:12;;;;;;;143.73;46.42;;;2.70;99.90;;;;;;5067174;28;20495;-75
2022/01/26 09:08:41;;;;;;;142.15;47.35;;;2.70;99.90;;;;;;5058320;28;20048;-73
2022/01/26 09:11:08;;;;;;;139.27;47.03;;;2.70;99.90;;;;;;5058310;28;20036;-74
2022/01/26 09:13:35;;;;;;;147.63;52.05;;;2.70;99.90;;;;;;5074551;28;20055;-74
2022/01/26 09:16:03;;;;;;;142.10;51.03;;;2.70;99.90;;;;;;5073937;28;20090;-74
2022/01/26 09:18:50;;;;;;;149.65;52.65;;;2.80;99.90;;;;;;5056337;28;20445;-74
2022/01/26 09:21:16;;;;;;;146.27;51.00;;;2.80;99.90;;;;;;5054669;28;20045;-74
2022/01/26 09:23:42;;;;;;;153.00;49.97;;;2.80;99.90;;;;;;5054125;28;20045;-74
2022/01/26 09:26:07;;;;;;;148.43;50.33;;;2.80;99.90;;;;;;5054283;28;20040;-73
2022/01/26 09:28:33;;;;;;;148.05;50.00;;;2.80;99.90;;;;;;5038180;28;20044;-73
2022/01/26 09:30:59;;;;;;;148.00;51.70;;;2.80;99.90;;;;;;5036867;28;20064;-73
2022/01/26 09:33:25;;;;;;;149.65;50.53;;;2.80;99.90;;;;;;5020869;28;20055;-73
2022/01/26 09:35:50;;;;;;;152.30;51.33;;;2.90;99.90;;;;;;5037403;28;20056;-74
2022/01/26 09:38:17;;;;;;;153.32;52.33;;;2.90;99.90;;;;;;5036865;28;20048;-73
2022/01/26 09:40:43;;;;;;;163.07;55.55;;;2.90;99.90;;;;;;5041329;28;20147;-73
2022/01/26 09:43:11;;;;;;;156.50;53.50;;;3.00;99.90;;;;;;5040138;28;20059;-74
2022/01/26 09:45:36;;;;;;;162.18;53.95;;;2.90;99.90;;;;;;5056437;28;20041;-73
2022/01/26 09:48:03;;;;;;;159.60;55.30;;;3.00;99.90;;;;;;5053342;28;20360;-73
2022/01/26 09:50:30;;;;;;;158.25;51.13;;;3.00;99.90;;;;;;5048443;28;20137;-73
2022/01/26 09:52:56;;;;;;;160.93;55.50;;;3.00;99.90;;;;;;5040702;28;20045;-73
2022/01/26 09:55:23;;;;;;;165.98;55.38;;;3.00;99.90;;;;;;5019663;28;20504;-73
2022/01/26 09:57:48;;;;;;;159.32;53.45;;;3.10;99.90;;;;;;5036058;28;20040;-74
2022/01/26 10:00:15;;;;;;;160.77;53.22;;;3.10;99.90;;;;;;5036431;28;20044;-74
2022/01/26 10:02:43;;;;;;;162.20;55.67;;;3.10;99.90;;;;;;5049716;28;20044;-73
2022/01/26 10:05:11;;;;;;;167.02;55.45;;;3.10;99.90;;;;;;5054505;28;20401;-72
2022/01/26 10:16:15;;;;;;;168.40;56.20;;;3.20;99.90;;;;;;5073602;28;20048;-74
2022/01/26 10:18:41;;;;;;;159.50;54.47;;;3.30;99.90;;;;;;5070301;28;20029;-73
2022/01/26 10:21:08;;;;;;;166.73;55.38;;;3.30;99.90;;;;;;5035498;28;20044;-73
2022/01/26 10:23:40;;;;;;;156.75;54.15;;;3.30;99.90;;;;;;5064370;28;20048;-73
2022/01/26 10:26:20;;;;;;;162.57;53.40;;;3.40;99.90;;;;;;5072406;28;20075;-74
2022/01/26 10:28:47;;;;;;;164.75;56.08;;;3.40;99.90;;;;;;5072104;28;20051;-73
2022/01/26 10:31:22;;;;;;;159.20;53.00;;;3.40;99.90;;;;;;5072083;28;20036;-74
2022/01/26 10:33:54;;;;;;;167.30;54.97;;;3.40;99.90;;;;;;5068207;28;20044;-74
2022/01/26 10:36:20;;;;;;;161.38;53.50;;;3.50;99.90;;;;;;5052404;28;20115;-73
2022/01/26 10:39:36;;;;;;;159.55;54.55;;;3.50;99.90;;;;;;5065249;28;20425;-73
2022/01/26 10:42:07;;;;;;;145.85;51.33;;;3.50;99.90;;;;;;5068803;28;20513;-73
2022/01/26 10:44:49;;;;;;;158.35;52.58;;;3.50;99.90;;;;;;5035659;28;20720;-73
2022/01/26 10:47:26;;;;;;;150.70;51.53;;;3.50;99.90;;;;;;5035287;28;20499;-74
2022/01/26 10:50:07;;;;;;;154.90;53.83;;;3.60;99.90;;;;;;5051801;28;20040;-74
2022/01/26 10:52:36;;;;;;;155.40;52.45;;;3.60;99.90;;;;;;5038942;28;20475;-73
2022/01/26 10:55:04;;;;;;;148.32;50.58;;;3.60;99.90;;;;;;5071255;28;20051;-73
2022/01/26 10:57:29;;;;;;;145.45;49.33;;;3.60;99.90;;;;;;5064074;28;20388;-73
2022/01/26 10:59:55;;;;;;;151.82;50.45;;;3.60;99.90;;;;;;5035143;28;20502;-72
2022/01/26 11:02:26;;;;;;;141.70;49.55;;;3.60;99.90;;;;;;5051539;28;20068;-73
2022/01/26 11:04:52;;;;;;;146.85;49.40;;;3.70;99.90;;;;;;5035181;28;20127;-73
2022/01/26 11:07:18;;;;;;;147.27;50.97;;;3.70;99.90;;;;;;5037035;28;20119;-73
2022/01/26 11:09:49;;;;;;;144.57;48.63;;;3.70;99.90;;;;;;5071713;28;20071;-73
2022/01/26 11:12:26;;;;;;;129.80;48.92;;;3.70;99.90;;;;;;5069030;28;20032;-73
2022/01/26 11:15:07;;;;;;;145.20;49.88;;;3.70;99.90;;;;;;5051989;28;20045;-74
2022/01/26 11:17:36;;;;;;;140.43;50.72;;;3.70;99.90;;;;;;5035102;28;20449;-74
2022/01/26 11:20:31;;;;;;;136.48;46.28;;;3.80;99.90;;;;;;5051711;28;20052;-72
2022/01/26 11:23:03;;;;;;;129.98;47.03;;;3.80;99.90;;;;;;5058450;28;20063;-74
2022/01/26 11:25:38;;;;;;;128.23;46.05;;;3.80;99.90;;;;;;5054273;28;20043;-73
2022/01/26 11:28:20;;;;;;;122.93;46.38;;;3.80;99.90;;;;;;5042753;28;20383;-73
2022/01/26 11:30:47;;;;;;;130.98;46.03;;;3.80;99.90;;;;;;5052038;28;20048;-74
2022/01/26 11:33:20;;;;;;;118.07;43.95;;;3.90;99.90;;;;;;5034235;28;20056;-74
2022/01/26 11:35:48;;;;;;;119.72;43.25;;;3.90;99.90;;;;;;5051240;28;20047;-74
2022/01/26 11:47:25;;;;;;;111.50;40.95;;;3.90;99.90;;;;;;5068790;28;20046;-74
2022/01/26 11:50:02;;;;;;;115.15;43.60;;;3.90;99.90;;;;;;5041651;28;20049;-74
2022/01/26 11:52:35;;;;;;;105.95;39.10;;;4.00;99.90;;;;;;5054121;28;20040;-73
2022/01/26 11:55:04;;;;;;;108.45;40.00;;;3.90;99.90;;;;;;5070742;28;20036;-74
2022/01/26 11:58:15;;;;;;;112.88;41.97;;;3.90;99.90;;;;;;5054219;28;20123;-73
2022/01/26 12:01:06;;;;;;;105.90;39.72;;;4.00;99.90;;;;;;5066127;28;20037;-74
2022/01/26 12:03:34;;;;;;;110.30;39.03;;;4.00;99.90;;;;;;5033841;28;20049;-74
2022/01/26 12:06:01;;;;;;;107.82;40.20;;;4.00;99.90;;;;;;5034042;28;20534;-74
2022/01/26 12:08:38;;;;;;;106.72;39.80;;;4.00;99.90;;;;;;5035234;28;20048;-76
2022/01/26 12:11:10;;;;;;;103.70;38.53;;;4.00;99.90;;;;;;5050864;28;20383;-74
2022/01/26 12:13:37;;;;;;;106.50;38.83;;;4.10;99.90;;;;;;5036561;28;20107;-74
2022/01/26 12:16:15;;;;;;;102.13;36.95;;;4.10;99.90;;;;;;5062588;28;20406;-74
2022/01/26 12:18:50;;;;;;;104.38;37.58;;;4.10;99.90;;;;;;5050866;28;20055;-75
2022/01/26 12:33:39;;;;;;;92.60;36.15;;;4.00;99.90;;;;;;5050684;28;19923;-75
2022/01/26 12:43:54;;;;;;;84.50;33.50;;;4.10;99.90;;;;;;5032113;28;20446;-73
2022/01/26 12:46:28;;;;;;;103.13;36.85;;;4.10;99.90;;;;;;5025384;28;20471;-74
2022/01/26 12:48:56;;;;;;;98.05;35.58;;;4.20;99.90;;;;;;5060759;28;20060;-73
2022/01/26 12:51:22;;;;;;;98.45;37.38;;;4.20;99.90;;;;;;5071741;28;20078;-75
2022/01/26 12:54:00;;;;;;;102.07;36.95;;;4.20;99.90;;;;;;5058135;28;20727;-74
2022/01/26 12:56:30;;;;;;;102.25;36.33;;;4.20;99.90;;;;;;5037356;28;20041;-73
2022/01/26 12:59:05;;;;;;;93.97;36.95;;;4.20;99.90;;;;;;5071023;28;20548;-74
2022/01/26 13:01:32;;;;;;;100.82;36.03;;;4.20;99.90;;;;;;5073149;28;20144;-73
2022/01/26 13:04:03;;;;;;;93.20;36.70;;;4.20;99.90;;;;;;5065580;28;20045;-73
2022/01/26 13:06:35;;;;;;;93.88;36.92;;;4.30;99.90;;;;;;5039027;28;20049;-74
2022/01/26 13:09:14;;;;;;;88.47;35.72;;;4.30;99.90;;;;;;5071668;28;20102;-75
2022/01/26 13:11:40;;;;;;;95.57;36.07;;;4.30;99.90;;;;;;5073800;28;20149;-75
2022/01/26 13:14:17;;;;;;;99.82;37.65;;;4.20;99.90;;;;;;5071195;28;20075;-74
2022/01/26 13:22:49;;;;;;;101.20;37.80;;;4.20;99.90;;;;;;5068008;28;20120;-73
2022/01/26 13:25:51;;;;;;;94.97;35.58;;;4.30;99.90;;;;;;5035432;28;20045;-73
2022/01/26 13:39:32;;;;;;;98.70;36.00;;;4.30;99.90;;;;;;5068511;28;20049;-72
2022/01/26 13:50:04;;;;;;;98.75;37.25;;;4.20;99.90;;;;;;5072334;28;20049;-73
2022/01/26 13:52:44;;;;;;;94.70;36.92;;;4.20;99.90;;;;;;5071406;28;20041;-73
2022/01/26 14:00:16;;;;;;;98.40;36.42;;;4.20;99.90;;;;;;5055756;28;20084;-72
2022/01/26 14:02:42;;;;;;;103.45;37.38;;;4.20;99.90;;;;;;5053975;28;20135;-73
2022/01/26 14:05:08;;;;;;;94.95;37.15;;;4.20;99.90;;;;;;5071908;28;20132;-74
2022/01/26 14:07:34;;;;;;;100.57;37.28;;;4.20;99.90;;;;;;5069380;28;20040;-73
2022/01/26 14:10:00;;;;;;;100.60;37.28;;;4.30;99.90;;;;;;5052961;28;20132;-74
2022/01/26 14:12:30;;;;;;;97.35;36.90;;;4.30;99.90;;;;;;5037024;28;20040;-74
2022/01/26 14:14:58;;;;;;;102.47;37.33;;;4.30;99.90;;;;;;5071629;28;20052;-74
2022/01/26 14:17:35;;;;;;;101.28;39.28;;;4.30;99.90;;;;;;5069354;28;20106;-74
2022/01/26 14:23:43;;;;;;;92.28;34.97;;;4.30;99.90;;;;;;5058296;28;20059;-73
2022/01/26 14:26:07;;;;;;;107.18;38.92;;;4.30;99.90;;;;;;5070944;28;20543;-74
2022/01/26 14:28:35;;;;;;;95.45;39.05;;;4.30;99.90;;;;;;5059476;28;20103;-75
2022/01/26 14:31:50;;;;;;;97.05;37.13;;;4.30;99.90;;;;;;5041300;28;20493;-73
2022/01/26 14:40:21;;;;;;;94.18;36.22;;;4.30;99.90;;;;;;5070702;28;20044;-74
2022/01/26 14:51:00;;;;;;;101.65;37.85;;;4.30;99.90;;;;;;5070606;28;20563;-72
2022/01/26 15:21:59;;;;;;;85.07;33.95;;;4.40;99.90;;;;;;5070533;28;20364;-73
2022/01/26 15:33:43;;;;;;;94.70;36.28;;;4.50;99.90;;;;;;5070503;28;20052;-73
2022/01/26 15:42:05;;;;;;;81.05;31.17;;;4.60;99.90;;;;;;5050586;28;20047;-74
2022/01/26 15:50:20;;;;;;;85.85;33.63;;;4.60;99.90;;;;;;5070407;28;20090;-73
2022/01/26 15:52:56;;;;;;;79.07;32.15;;;4.60;99.90;;;;;;5069632;28;20044;-73
2022/01/26 15:58:19;;;;;;;82.93;31.40;;;4.60;99.90;;;;;;5070272;28;20386;-74
2022/01/26 16:06:43;;;;;;;77.68;32.38;;;4.70;99.90;;;;;;5060235;28;20041;-72
2022/01/26 16:20:38;;;;;;;89.90;36.30;;;4.70;99.90;;;;;;5055687;28;20033;-73
2022/01/26 16:44:19;;;;;;;84.65;35.25;;;4.80;99.90;;;;;;5071960;28;20052;-72
2022/01/26 17:11:10;;;;;;;89.20;34.03;;;4.80;99.90;;;;;;5053405;28;20055;-73
2022/01/26 18:16:49;;;;;;;82.63;35.97;;;4.70;99.90;;;;;;5052152;28;20522;-73
2022/01/26 18:32:54;;;;;;;84.57;36.22;;;4.80;99.90;;;;;;5072510;28;20525;-74
2022/01/26 18:46:20;;;;;;;105.22;43.17;;;4.90;99.90;;;;;;5052486;28;20037;-73
2022/01/26 18:51:36;;;;;;;85.43;36.40;;;5.00;99.90;;;;;;5070971;28;20485;-75
2022/01/26 18:54:03;;;;;;;99.28;40.83;;;5.00;99.90;;;;;;5056975;28;20041;-73
2022/01/26 18:56:28;;;;;;;93.88;41.03;;;5.00;99.90;;;;;;5051807;28;20060;-73
2022/01/26 18:58:54;;;;;;;103.90;42.00;;;5.00;99.90;;;;;;5034181;28;20053;-73
2022/01/26 19:01:20;;;;;;;78.97;34.65;;;5.00;99.90;;;;;;5051462;28;20057;-73
2022/01/26 19:03:45;;;;;;;79.90;36.38;;;5.00;99.90;;;;;;5043576;28;20084;-73
2022/01/26 19:06:11;;;;;;;83.40;35.90;;;5.00;99.90;;;;;;5042308;28;20076;-73
2022/01/26 19:08:39;;;;;;;80.97;35.05;;;5.00;99.90;;;;;;5043644;28;20490;-74